Time;durP1;ratioP1;P1;durP2;ratioP2;P2;SDS_P1;SDS_P2;PMS_P1;PMS_P2;Temp;Humidity;BMP_temperature;BMP_pressure;BME280_temperature;BME280_humidity;BME280_pressure;Samples;Min_cycle;Max_cycle;Signal;HPM_P1;HPM_P2
2021/03/27 00:00:53;;;;;;;64.50;28.35;;;;;;;4.52;46.15;101336.30;126209;1099;104150;-80
2021/03/27 00:03:28;;;;;;;67.93;29.03;;;;;;;4.47;46.10;101328.16;126298;1099;104155;-80
2021/03/27 00:06:03;;;;;;;59.13;27.30;;;;;;;4.43;46.38;101336.55;126274;1099;104149;-80
2021/03/27 00:08:44;;;;;;;62.33;27.40;;;;;;;4.38;45.88;101331.01;126229;1099;105094;-80
2021/03/27 00:11:18;;;;;;;65.83;28.37;;;;;;;4.36;45.98;101329.08;125255;1102;119191;-80
2021/03/27 00:13:58;;;;;;;60.30;27.30;;;;;;;4.34;45.88;101335.86;125316;1101;104306;-80
2021/03/27 00:16:34;;;;;;;63.17;27.20;;;;;;;4.29;46.24;101331.22;125220;1102;104533;-80
2021/03/27 00:19:08;;;;;;;61.77;27.53;;;;;;;4.25;46.98;101331.77;125296;1101;104175;-79
2021/03/27 00:21:43;;;;;;;62.60;27.75;;;;;;;4.23;46.50;101327.27;125272;1102;104163;-80
2021/03/27 00:24:19;;;;;;;65.43;28.97;;;;;;;4.21;46.67;101321.96;125249;1101;102932;-80
2021/03/27 00:26:55;;;;;;;66.30;29.13;;;;;;;4.19;46.49;101326.16;125322;1102;104222;-79
2021/03/27 00:29:28;;;;;;;61.77;26.83;;;;;;;4.19;47.32;101327.82;125295;1101;104306;-79
2021/03/27 00:32:02;;;;;;;60.33;27.17;;;;;;;4.18;46.87;101319.14;125276;1102;108114;-79
2021/03/27 00:34:36;;;;;;;58.77;25.53;;;;;;;4.17;47.14;101325.11;125357;1102;104306;-79
2021/03/27 00:37:06;;;;;;;;;;;;;;;4.13;46.98;101320.50;125372;1102;104396;-79
2021/03/27 00:39:45;;;;;;;63.83;27.67;;;;;;;4.10;47.11;101318.56;125292;1102;104232;-79
2021/03/27 00:42:18;;;;;;;59.90;28.40;;;;;;;4.07;47.72;101320.04;125237;1099;104286;-79
2021/03/27 00:44:53;;;;;;;64.20;27.40;;;;;;;4.06;47.25;101315.63;125264;1099;104208;-80
2021/03/27 00:47:27;;;;;;;63.13;28.10;;;;;;;4.03;47.87;101320.58;126296;1099;104589;-79
2021/03/27 00:50:01;;;;;;;57.85;27.93;;;;;;;3.98;47.48;101319.34;125293;1099;104166;-79
2021/03/27 00:52:34;;;;;;;;;;;;;;;3.94;48.35;101318.19;125364;1099;107403;-79
2021/03/27 00:55:08;;;;;;;56.90;25.53;;;;;;;3.89;48.11;101320.44;126295;1099;104280;-79
2021/03/27 00:57:41;;;;;;;65.10;28.23;;;;;;;3.83;48.38;101319.97;125616;1099;104201;-79
2021/03/27 01:00:22;;;;;;;60.87;27.87;;;;;;;3.79;48.21;101317.95;125329;1100;104168;-81
2021/03/27 01:03:09;;;;;;;66.80;28.47;;;;;;;3.72;47.98;101316.55;126300;1099;117878;-79
2021/03/27 01:05:56;;;;;;;65.43;27.50;;;;;;;3.67;47.98;101317.91;125228;1099;104142;-79
2021/03/27 01:08:49;;;;;;;62.97;28.03;;;;;;;3.64;48.44;101311.59;125242;1097;104159;-79
2021/03/27 01:11:42;;;;;;;67.10;28.10;;;;;;;3.60;48.49;101315.66;125528;1099;104156;-80
2021/03/27 01:14:18;;;;;;;63.37;28.37;;;;;;;3.58;48.54;101322.39;126320;1099;104156;-79
2021/03/27 01:16:52;;;;;;;62.53;27.23;;;;;;;3.53;48.63;101324.64;126302;1099;104155;-79
2021/03/27 01:19:32;;;;;;;64.37;27.60;;;;;;;3.51;48.17;101330.52;126281;1099;104194;-79
2021/03/27 01:22:19;;;;;;;60.80;27.80;;;;;;;3.49;49.03;101321.69;125194;1099;103986;-80
2021/03/27 01:24:48;;;;;;;64.83;28.33;;;;;;;3.42;48.86;101328.99;126231;1098;104141;-79
2021/03/27 01:27:26;;;;;;;64.37;27.10;;;;;;;3.36;48.72;101322.44;126133;1099;104223;-79
2021/03/27 01:30:06;;;;;;;66.60;29.10;;;;;;;3.33;49.11;101319.60;125400;1099;104137;-78
2021/03/27 01:32:44;;;;;;;59.67;24.53;;;;;;;3.31;48.80;101326.37;125313;1099;104272;-79
2021/03/27 01:35:18;;;;;;;58.40;25.10;;;;;;;3.26;49.18;101327.67;125147;1099;104163;-79
2021/03/27 01:37:51;;;;;;;67.30;29.37;;;;;;;3.21;49.29;101333.43;126273;1099;104143;-79
2021/03/27 01:40:32;;;;;;;62.43;26.97;;;;;;;3.17;49.55;101331.37;125193;1099;104275;-79
2021/03/27 01:43:15;;;;;;;65.80;29.47;;;;;;;3.15;49.39;101334.64;125402;1099;104204;-80
2021/03/27 01:46:06;;;;;;;59.47;26.23;;;;;;;3.10;49.52;101336.88;125419;1099;104169;-80
2021/03/27 01:48:46;;;;;;;63.10;27.93;;;;;;;3.05;49.05;101332.99;126330;1098;104216;-79
2021/03/27 01:51:28;;;;;;;63.53;27.67;;;;;;;3.01;49.61;101342.23;126311;1099;104212;-79
2021/03/27 01:54:03;;;;;;;60.10;26.73;;;;;;;2.99;49.27;101340.28;125237;1099;106892;-80
2021/03/27 01:56:43;;;;;;;68.43;29.80;;;;;;;2.97;49.56;101336.67;125234;1100;104245;-79
2021/03/27 01:59:15;;;;;;;65.43;29.67;;;;;;;2.97;49.84;101344.45;126262;1099;104159;-80
2021/03/27 02:01:51;;;;;;;66.87;29.47;;;;;;;2.96;49.55;101353.93;125225;1099;104143;-79
2021/03/27 02:04:24;;;;;;;64.53;28.00;;;;;;;2.96;49.63;101340.97;126297;1099;104139;-78
2021/03/27 02:07:00;;;;;;;67.60;29.87;;;;;;;2.94;49.91;101346.80;126301;1099;104163;-78
2021/03/27 02:09:36;;;;;;;60.80;26.30;;;;;;;2.90;50.05;101349.92;126299;1099;104269;-79
2021/03/27 02:12:10;;;;;;;66.83;27.70;;;;;;;2.87;49.85;101348.02;126174;1099;104271;-80
2021/03/27 02:14:49;;;;;;;63.30;27.70;;;;;;;2.83;50.60;101354.61;126188;1099;104155;-80
2021/03/27 02:17:26;;;;;;;67.57;28.47;;;;;;;2.78;49.76;101357.64;126304;1099;104197;-79
2021/03/27 02:20:20;;;;;;;65.23;28.80;;;;;;;2.74;49.98;101356.46;125226;1099;104166;-80
2021/03/27 02:23:02;;;;;;;60.80;28.02;;;;;;;2.68;50.31;101354.30;125128;1099;102034;-80
2021/03/27 02:25:55;;;;;;;62.70;28.83;;;;;;;2.63;50.56;101359.88;126262;1099;104258;-80
2021/03/27 02:28:41;;;;;;;64.85;28.87;;;;;;;2.60;50.43;101359.63;125214;1099;104252;-80
2021/03/27 02:31:17;;;;;;;66.63;27.43;;;;;;;2.56;50.74;101360.18;126324;1099;104149;-79
2021/03/27 02:33:56;;;;;;;63.40;28.90;;;;;;;2.52;50.12;101359.00;126278;1099;104242;-79
2021/03/27 02:36:46;;;;;;;59.30;25.40;;;;;;;2.49;50.88;101358.75;126329;1099;104156;-79
2021/03/27 02:39:21;;;;;;;57.80;25.43;;;;;;;2.46;51.02;101363.69;126155;1099;104165;-80
2021/03/27 02:42:02;;;;;;;;;;;;;;;2.41;51.39;101367.59;126290;1099;104201;-80
2021/03/27 02:44:36;;;;;;;63.43;26.77;;;;;;;2.38;50.28;101376.00;125186;1102;104169;-80
2021/03/27 02:47:37;;;;;;;69.77;28.70;;;;;;;2.38;51.16;101369.93;125221;1099;104146;-80
2021/03/27 02:50:26;;;;;;;64.57;27.40;;;;;;;2.36;51.40;101368.91;126315;1099;104294;-80
2021/03/27 02:53:02;;;;;;;70.87;28.37;;;;;;;2.33;51.27;101370.44;126139;1099;104326;-80
2021/03/27 02:55:41;;;;;;;63.17;28.20;;;;;;;2.34;51.11;101373.96;126269;1099;104215;-79
2021/03/27 02:58:19;;;;;;;64.40;29.07;;;;;;;2.36;51.33;101374.98;126287;1099;104194;-79
2021/03/27 03:01:01;;;;;;;66.53;28.37;;;;;;;2.40;51.89;101379.65;125262;1099;104198;-80
2021/03/27 03:03:37;;;;;;;66.60;29.67;;;;;;;2.42;51.31;101372.90;126204;1099;105316;-80
2021/03/27 03:06:22;;;;;;;67.93;28.67;;;;;;;2.42;51.37;101375.48;126218;1099;104223;-80
2021/03/27 03:09:05;;;;;;;64.97;28.37;;;;;;;2.39;51.91;101382.11;126271;1099;104159;-79
2021/03/27 03:11:45;;;;;;;68.27;27.93;;;;;;;2.35;51.39;101383.52;125261;1099;104146;-80
2021/03/27 03:14:20;;;;;;;70.40;29.27;;;;;;;2.31;52.01;101374.60;125497;1099;105701;-80
2021/03/27 03:17:01;;;;;;;64.47;27.27;;;;;;;2.28;51.78;101381.22;126266;1099;104172;-80
2021/03/27 03:19:41;;;;;;;70.47;27.13;;;;;;;2.25;52.14;101387.05;126230;1099;104254;-80
2021/03/27 03:22:15;;;;;;;66.70;27.63;;;;;;;2.21;51.93;101382.37;125357;1099;104323;-80
2021/03/27 03:24:50;;;;;;;59.90;25.47;;;;;;;2.19;52.39;101378.77;125081;1099;104143;-80
2021/03/27 03:27:30;;;;;;;69.33;29.90;;;;;;;2.15;51.83;101381.86;125290;1099;104223;-80
2021/03/27 03:30:13;;;;;;;65.50;28.17;;;;;;;2.11;52.14;101380.71;126270;1099;104304;-80
2021/03/27 03:32:48;;;;;;;63.83;28.47;;;;;;;2.08;52.39;101383.05;125239;1099;104165;-80
2021/03/27 03:35:32;;;;;;;68.95;29.05;;;;;;;2.08;52.54;101385.63;125845;1098;104930;-79
2021/03/27 03:38:18;;;;;;;68.83;28.03;;;;;;;2.07;52.76;101382.91;126253;1098;104175;-79
2021/03/27 03:41:03;;;;;;;70.60;28.00;;;;;;;2.04;52.07;101387.83;126319;1099;104146;-79
2021/03/27 03:43:41;;;;;;;69.40;29.70;;;;;;;2.00;52.59;101390.97;126274;1099;104162;-79
2021/03/27 03:46:28;;;;;;;62.97;26.47;;;;;;;1.94;52.41;101396.52;125328;1099;104262;-79
2021/03/27 03:49:22;;;;;;;67.00;28.00;;;;;;;1.90;52.77;101394.44;126349;1099;104150;-79
2021/03/27 03:52:09;;;;;;;70.63;28.90;;;;;;;1.83;52.81;101398.20;125263;1102;104184;-79
2021/03/27 03:54:52;;;;;;;70.57;29.10;;;;;;;1.81;52.71;101399.76;125297;1102;104290;-80
2021/03/27 03:57:43;;;;;;;72.07;30.37;;;;;;;1.82;53.36;101400.66;125308;1102;104274;-79
2021/03/27 04:00:21;;;;;;;64.17;26.57;;;;;;;1.82;53.55;101405.83;125295;1102;104297;-79
2021/03/27 04:02:59;;;;;;;71.63;30.77;;;;;;;1.83;52.70;101407.66;125237;1102;104142;-80
2021/03/27 04:05:35;;;;;;;68.00;29.47;;;;;;;1.82;52.96;101414.48;125247;1102;104150;-79
2021/03/27 04:08:11;;;;;;;71.50;29.20;;;;;;;1.81;53.39;101407.52;125275;1102;102940;-79
2021/03/27 04:10:42;;;;;;;70.43;28.80;;;;;;;1.82;53.12;101409.31;125247;1102;104239;-80
2021/03/27 04:13:18;;;;;;;65.37;29.87;;;;;;;1.84;52.69;101412.03;125297;1102;104287;-79
2021/03/27 04:15:53;;;;;;;72.60;30.67;;;;;;;1.86;53.12;101413.09;125347;1102;104300;-79
2021/03/27 04:18:33;;;;;;;71.30;28.60;;;;;;;1.85;52.85;101419.92;125305;1102;103477;-80
2021/03/27 04:21:09;;;;;;;71.13;30.27;;;;;;;1.86;53.37;101420.86;125296;1103;104175;-79
2021/03/27 04:23:45;;;;;;;69.40;28.77;;;;;;;1.86;52.96;101413.98;125265;1102;104261;-80
2021/03/27 04:26:27;;;;;;;62.50;27.77;;;;;;;1.87;53.37;101431.34;125212;1102;104373;-80
2021/03/27 04:29:13;;;;;;;70.20;28.13;;;;;;;1.89;53.15;101424.60;126320;1099;104281;-79
2021/03/27 04:31:46;;;;;;;68.33;27.63;;;;;;;1.92;54.01;101429.14;126346;1099;104185;-79
2021/03/27 04:34:23;;;;;;;63.73;27.73;;;;;;;1.94;53.72;101427.58;126329;1099;104248;-79
2021/03/27 04:37:00;;;;;;;64.15;28.10;;;;;;;1.97;53.34;101427.84;125521;1099;104144;-79
2021/03/27 04:39:39;;;;;;;72.03;28.47;;;;;;;2.04;53.61;101434.44;125237;1102;104303;-79
2021/03/27 04:42:16;;;;;;;65.83;26.97;;;;;;;2.07;53.90;101434.70;125250;1102;104153;-80
2021/03/27 04:44:52;;;;;;;67.53;28.10;;;;;;;2.11;53.63;101429.02;125378;1102;104168;-80
2021/03/27 04:47:29;;;;;;;70.47;29.43;;;;;;;2.20;54.30;101431.45;125365;1102;104297;-79
2021/03/27 04:50:09;;;;;;;68.80;30.23;;;;;;;2.25;53.83;101431.07;125273;1102;104204;-80
2021/03/27 04:52:45;;;;;;;71.17;28.53;;;;;;;2.29;54.16;101435.73;125176;1103;104335;-79
2021/03/27 04:55:30;;;;;;;71.07;28.03;;;;;;;2.35;54.53;101432.73;125314;1102;104152;-80
2021/03/27 04:58:24;;;;;;;69.70;27.63;;;;;;;2.41;54.34;101435.84;125241;1102;110787;-80
2021/03/27 05:01:07;;;;;;;68.57;27.50;;;;;;;2.47;54.32;101438.94;125214;1102;104149;-79
2021/03/27 05:03:43;;;;;;;66.93;29.00;;;;;;;2.53;54.22;101437.66;125282;1102;104188;-80
2021/03/27 05:06:17;;;;;;;71.07;30.63;;;;;;;2.57;54.54;101445.81;125239;1102;104293;-80
2021/03/27 05:09:00;;;;;;;69.23;29.97;;;;;;;2.63;54.52;101443.73;125259;1102;104443;-79
2021/03/27 05:11:46;;;;;;;71.43;29.87;;;;;;;2.73;54.82;101442.80;125938;1099;104789;-80
2021/03/27 05:14:28;;;;;;;69.03;28.67;;;;;;;2.83;54.81;101442.75;126270;1099;104592;-80
2021/03/27 05:17:07;;;;;;;69.93;29.83;;;;;;;2.95;54.93;101444.55;126196;1099;104430;-80
2021/03/27 05:19:43;;;;;;;66.40;27.30;;;;;;;3.02;54.66;101441.66;126073;1099;104169;-80
2021/03/27 05:22:27;;;;;;;67.70;28.63;;;;;;;3.08;54.47;101443.85;126288;1099;104290;-80
2021/03/27 05:25:12;;;;;;;69.23;29.60;;;;;;;3.13;53.83;101455.48;125162;1099;104275;-80
2021/03/27 05:27:51;;;;;;;71.03;29.67;;;;;;;3.17;54.63;101448.08;126248;1099;105188;-79
2021/03/27 05:30:26;;;;;;;70.30;30.13;;;;;;;3.22;53.95;101451.05;126300;1099;104149;-80
2021/03/27 05:33:18;;;;;;;68.75;30.40;;;;;;;3.23;54.13;101447.68;126320;1099;104268;-79
2021/03/27 05:35:56;;;;;;;75.80;31.27;;;;;;;3.27;53.84;101444.53;126263;1099;104156;-80
2021/03/27 05:38:38;;;;;;;72.83;30.53;;;;;;;3.29;54.78;101448.17;126176;1099;104198;-80
2021/03/27 05:41:32;;;;;;;70.67;29.33;;;;;;;3.32;55.11;101443.23;126231;1099;104146;-80
2021/03/27 05:44:27;;;;;;;75.60;32.05;;;;;;;3.41;54.91;101449.16;126097;1099;104149;-80
2021/03/27 05:47:07;;;;;;;;;;;;;;;3.51;54.91;101450.78;126155;1099;104144;-80
2021/03/27 05:50:09;;;;;;;69.23;30.63;;;;;;;3.59;54.53;101448.79;126257;1099;104133;-80
2021/03/27 05:53:02;;;;;;;75.43;31.83;;;;;;;3.68;54.65;101448.62;126285;1098;104159;-80
2021/03/27 05:55:45;;;;;;;71.83;30.93;;;;;;;3.78;54.85;101446.84;126308;1099;104146;-80
2021/03/27 05:58:33;;;;;;;74.87;33.40;;;;;;;3.88;54.78;101448.48;125610;1099;104159;-79
2021/03/27 06:01:18;;;;;;;72.87;32.33;;;;;;;3.99;54.47;101450.98;126255;1099;104248;-79
2021/03/27 06:04:15;;;;;;;75.37;32.10;;;;;;;4.07;54.67;101450.80;125129;1099;104173;-79
2021/03/27 06:06:56;;;;;;;74.97;31.07;;;;;;;4.19;54.82;101443.05;126226;1099;102089;-80
2021/03/27 06:09:44;;;;;;;71.87;30.67;;;;;;;4.33;54.77;101446.67;126188;1099;106512;-80
2021/03/27 06:12:41;;;;;;;68.77;30.93;;;;;;;4.48;55.02;101454.73;125358;1099;104226;-79
2021/03/27 06:15:34;;;;;;;79.17;32.30;;;;;;;4.64;54.86;101457.71;126277;1099;104376;-80
2021/03/27 06:18:35;;;;;;;72.77;31.57;;;;;;;4.78;55.09;101457.81;126223;1099;104143;-79
2021/03/27 06:21:20;;;;;;;76.97;32.27;;;;;;;4.93;55.06;101461.55;125381;1099;104253;-79
2021/03/27 06:24:10;;;;;;;69.90;30.63;;;;;;;5.11;55.29;101464.61;125239;1099;104194;-79
2021/03/27 06:27:04;;;;;;;74.70;30.97;;;;;;;5.26;54.72;101463.91;125181;1102;104204;-79
2021/03/27 06:30:03;;;;;;;69.57;31.30;;;;;;;5.37;54.48;101469.08;125143;1099;104198;-80
2021/03/27 06:33:02;;;;;;;64.07;28.63;;;;;;;5.49;54.77;101461.25;126216;1099;104178;-81
2021/03/27 06:35:50;;;;;;;77.63;31.33;;;;;;;5.58;54.30;101469.73;125205;1099;104147;-80
2021/03/27 06:38:47;;;;;;;72.10;31.10;;;;;;;5.68;54.84;101465.17;125343;1099;104258;-81
2021/03/27 06:41:39;;;;;;;68.07;31.80;;;;;;;5.78;54.51;101469.32;126256;1099;104159;-80
2021/03/27 06:44:27;;;;;;;76.03;30.97;;;;;;;5.90;55.02;101472.79;126288;1099;104141;-79
2021/03/27 06:47:15;;;;;;;73.57;31.90;;;;;;;6.01;55.05;101466.65;125665;1099;104149;-79
2021/03/27 06:50:07;;;;;;;68.03;29.73;;;;;;;6.14;54.68;101468.42;125152;1099;104288;-79
2021/03/27 06:53:09;;;;;;;75.37;32.67;;;;;;;6.28;54.51;101474.59;125320;1099;104254;-80
2021/03/27 06:55:47;;;;;;;73.40;31.47;;;;;;;6.40;54.57;101472.79;126210;1099;104140;-79
2021/03/27 06:58:42;;;;;;;70.77;30.90;;;;;;;6.56;54.57;101466.94;126164;1097;104589;-79
2021/03/27 07:01:36;;;;;;;69.73;29.53;;;;;;;6.75;54.47;101471.67;125332;1099;104660;-79
2021/03/27 07:04:31;;;;;;;72.30;31.85;;;;;;;6.95;54.83;101467.77;125463;1099;104139;-79
2021/03/27 07:07:27;;;;;;;73.87;30.83;;;;;;;7.12;54.60;101475.78;126295;1099;104153;-80
2021/03/27 07:10:21;;;;;;;68.13;30.80;;;;;;;7.27;54.53;101475.89;126242;1099;104261;-79
2021/03/27 07:13:17;;;;;;;71.73;31.27;;;;;;;7.38;54.36;101470.53;126195;1098;104996;-80
2021/03/27 07:16:07;;;;;;;72.70;31.23;;;;;;;7.50;53.98;101473.03;126248;1099;104166;-80
2021/03/27 07:18:58;;;;;;;73.40;32.73;;;;;;;7.63;54.05;101471.20;126261;1098;105473;-81
2021/03/27 07:21:49;;;;;;;70.27;32.13;;;;;;;7.76;54.14;101468.57;126202;1099;105651;-80
2021/03/27 07:24:37;;;;;;;70.57;31.93;;;;;;;7.86;53.74;101473.54;126243;1099;104300;-80
2021/03/27 07:27:35;;;;;;;68.83;31.30;;;;;;;7.92;53.82;101468.70;126159;1099;104606;-80
2021/03/27 07:30:26;;;;;;;72.77;31.77;;;;;;;8.00;54.14;101474.40;126162;1099;104188;-80
2021/03/27 07:33:22;;;;;;;72.13;32.30;;;;;;;8.11;53.88;101472.44;126188;1099;104680;-79
2021/03/27 07:36:18;;;;;;;71.33;32.97;;;;;;;8.27;53.42;101476.89;126105;1099;104297;-80
2021/03/27 07:39:00;;;;;;;70.47;32.88;;;;;;;8.42;53.74;101474.30;126148;1099;104146;-80
2021/03/27 07:41:53;;;;;;;70.35;32.03;;;;;;;8.50;53.53;101470.46;126089;1099;104169;-80
2021/03/27 07:44:49;;;;;;;66.53;31.27;;;;;;;8.67;53.78;101474.08;126188;1099;104165;-80
2021/03/27 07:47:39;;;;;;;69.30;30.33;;;;;;;8.80;53.50;101474.00;126258;1099;104235;-79
2021/03/27 07:50:24;;;;;;;66.73;29.53;;;;;;;8.91;53.30;101476.31;126243;1098;104245;-80
2021/03/27 07:53:13;;;;;;;66.37;30.43;;;;;;;8.98;53.61;101471.52;126279;1099;104330;-80
2021/03/27 07:56:08;;;;;;;62.53;30.10;;;;;;;9.09;53.61;101474.77;126248;1099;104296;-79
2021/03/27 07:59:03;;;;;;;64.95;31.70;;;;;;;9.25;52.95;101476.53;126268;1099;104153;-79
2021/03/27 08:01:55;;;;;;;66.25;31.80;;;;;;;9.40;53.45;101467.75;126216;1099;104206;-80
2021/03/27 08:04:47;;;;;;;59.23;28.17;;;;;;;9.48;53.35;101476.93;126189;1099;104226;-80
2021/03/27 08:07:29;;;;;;;66.40;30.33;;;;;;;9.55;53.18;101471.19;126240;1099;104248;-80
2021/03/27 08:10:25;;;;;;;64.35;29.00;;;;;;;9.61;53.21;101466.29;126225;1099;104239;-79
2021/03/27 08:13:16;;;;;;;64.03;31.07;;;;;;;9.67;52.51;101466.63;126247;1099;104149;-81
2021/03/27 08:16:07;;;;;;;62.50;30.37;;;;;;;9.78;52.39;101458.46;126310;1098;105720;-79
2021/03/27 08:19:00;;;;;;;61.20;29.93;;;;;;;9.90;52.88;101459.12;126262;1099;104259;-80
2021/03/27 08:21:39;;;;;;;64.70;30.80;;;;;;;10.07;52.97;101460.92;126224;1099;104191;-80
2021/03/27 08:24:27;;;;;;;61.50;30.93;;;;;;;10.15;52.14;101458.70;126268;1099;104287;-80
2021/03/27 08:27:22;;;;;;;62.25;30.70;;;;;;;10.23;52.38;101457.37;126275;1099;104144;-80
2021/03/27 08:30:17;;;;;;;59.63;29.30;;;;;;;10.32;52.54;101458.70;126161;1099;104198;-81
2021/03/27 08:33:09;;;;;;;62.23;30.37;;;;;;;10.36;52.45;101464.22;126009;1100;104329;-79
2021/03/27 08:36:18;;;;;;;67.37;31.67;;;;;;;10.44;51.75;101456.75;126238;1099;104256;-80
2021/03/27 08:39:12;;;;;;;58.07;28.70;;;;;;;10.57;52.34;101458.27;126032;1099;104140;-79
2021/03/27 08:42:00;;;;;;;63.13;29.70;;;;;;;10.69;52.18;101453.64;126204;1099;104018;-79
2021/03/27 08:44:47;;;;;;;60.47;31.40;;;;;;;10.84;52.20;101460.48;126255;1099;104589;-79
2021/03/27 08:47:36;;;;;;;60.53;29.23;;;;;;;11.03;52.27;101455.33;126247;1099;104134;-80
2021/03/27 08:50:29;;;;;;;60.57;29.73;;;;;;;11.13;51.46;101461.92;126080;1099;104739;-80
2021/03/27 08:53:24;;;;;;;60.87;29.50;;;;;;;11.11;51.29;101460.92;126043;1099;104146;-80
2021/03/27 08:56:16;;;;;;;62.73;30.95;;;;;;;11.21;51.22;101455.30;126224;1099;104210;-81
2021/03/27 08:59:12;;;;;;;68.77;33.47;;;;;;;11.35;51.53;101452.45;126136;1099;104213;-78
2021/03/27 09:02:05;;;;;;;66.53;31.07;;;;;;;11.38;51.15;101448.23;126221;1099;104053;-80
2021/03/27 09:04:51;;;;;;;67.77;32.47;;;;;;;11.33;51.21;101450.64;126220;1099;104233;-79
2021/03/27 09:07:32;;;;;;;63.70;31.43;;;;;;;11.30;50.85;101445.23;126223;1099;104136;-79
2021/03/27 09:10:29;;;;;;;63.87;32.57;;;;;;;11.23;50.72;101442.23;126299;1098;104184;-79
2021/03/27 09:13:23;;;;;;;57.47;28.00;;;;;;;11.25;51.02;101444.13;126248;1099;104181;-79
2021/03/27 09:16:17;;;;;;;64.50;30.03;;;;;;;11.21;50.61;101434.28;126212;1099;104195;-80
2021/03/27 09:19:04;;;;;;;62.33;31.73;;;;;;;11.29;50.61;101434.66;126166;1099;104227;-80
2021/03/27 09:21:41;;;;;;;60.57;29.63;;;;;;;11.39;50.08;101429.02;126214;1099;104159;-80
2021/03/27 09:24:29;;;;;;;66.47;32.03;;;;;;;11.31;49.83;101423.40;126207;1099;104176;-80
2021/03/27 09:27:39;;;;;;;63.00;30.70;;;;;;;11.35;49.96;101421.81;125394;1099;104223;-80
2021/03/27 09:30:19;;;;;;;59.63;30.33;;;;;;;11.28;50.30;101430.21;126108;1099;104174;-79
2021/03/27 09:32:54;;;;;;;60.60;29.67;;;;;;;11.28;50.01;101422.33;126058;1099;104216;-80
2021/03/27 09:35:42;;;;;;;63.17;30.17;;;;;;;11.36;50.15;101423.62;126019;1099;104299;-78
2021/03/27 09:38:29;;;;;;;61.50;30.30;;;;;;;11.53;50.05;101411.27;126115;1099;105173;-79
2021/03/27 09:41:22;;;;;;;60.70;30.30;;;;;;;11.67;49.99;101415.42;126136;1099;104335;-79
2021/03/27 09:44:08;;;;;;;60.90;30.03;;;;;;;11.73;49.64;101409.52;125448;1099;104335;-80
2021/03/27 09:46:49;;;;;;;57.83;29.40;;;;;;;11.68;48.88;101421.57;126136;1098;102087;-80
2021/03/27 09:49:32;;;;;;;58.60;28.35;;;;;;;11.69;49.74;101411.12;126164;1099;104444;-79
2021/03/27 09:52:19;;;;;;;61.30;30.20;;;;;;;11.82;49.40;101409.05;126197;1099;104258;-79
2021/03/27 09:54:52;;;;;;;59.83;28.00;;;;;;;11.87;49.13;101407.52;126129;1099;110630;-80
2021/03/27 09:57:27;;;;;;;56.20;28.67;;;;;;;11.95;49.30;101411.45;126144;1099;104322;-79
2021/03/27 10:00:15;;;;;;;56.47;27.70;;;;;;;12.04;49.22;101406.60;126047;1099;104197;-79
2021/03/27 10:02:52;;;;;;;57.73;27.40;;;;;;;12.07;48.77;101400.55;125317;1099;104460;-79
2021/03/27 10:05:35;;;;;;;59.37;29.40;;;;;;;12.09;49.07;101397.98;125836;1099;104265;-79
2021/03/27 10:08:20;;;;;;;56.67;28.90;;;;;;;12.07;48.95;101399.66;126197;1099;104992;-79
2021/03/27 10:11:00;;;;;;;55.73;27.97;;;;;;;12.09;48.88;101404.17;126257;1099;104136;-79
2021/03/27 10:13:58;;;;;;;57.80;29.23;;;;;;;12.07;48.64;101395.30;126199;1099;104318;-79
2021/03/27 10:16:36;;;;;;;57.07;27.40;;;;;;;12.09;48.55;101403.25;126300;1099;104447;-79
2021/03/27 10:19:35;;;;;;;54.97;27.87;;;;;;;12.03;47.92;101403.91;126278;1099;104136;-79
2021/03/27 10:22:16;;;;;;;56.40;28.15;;;;;;;12.01;47.89;101397.65;126321;1099;104149;-79
2021/03/27 10:24:54;;;;;;;51.60;26.47;;;;;;;12.08;48.17;101399.73;126070;1099;103473;-80
2021/03/27 10:27:37;;;;;;;56.13;28.47;;;;;;;12.16;48.26;101394.81;126269;1099;104201;-80
2021/03/27 10:30:22;;;;;;;55.40;27.10;;;;;;;12.27;48.05;101395.27;126259;1099;104146;-79
2021/03/27 10:33:11;;;;;;;54.17;27.03;;;;;;;12.42;48.05;101393.30;126102;1098;104219;-79
2021/03/27 10:35:56;;;;;;;51.27;26.53;;;;;;;12.51;48.02;101393.69;126139;1099;104223;-80
2021/03/27 10:38:44;;;;;;;51.07;26.43;;;;;;;12.52;47.93;101392.83;126208;1099;104185;-79
2021/03/27 10:41:21;;;;;;;56.63;28.00;;;;;;;12.63;48.16;101392.39;126011;1098;104382;-79
2021/03/27 10:44:03;;;;;;;50.60;26.40;;;;;;;12.69;47.83;101382.12;126115;1099;104144;-79
2021/03/27 10:46:40;;;;;;;50.73;25.47;;;;;;;12.68;47.40;101381.20;126267;1099;104197;-79
2021/03/27 10:49:27;;;;;;;53.40;27.17;;;;;;;12.66;47.26;101387.26;126069;1099;102839;-80
2021/03/27 10:52:20;;;;;;;51.50;26.03;;;;;;;12.62;47.13;101386.24;126215;1099;104178;-80
2021/03/27 10:55:19;;;;;;;53.63;26.87;;;;;;;12.65;47.23;101374.92;126190;1099;104131;-80
2021/03/27 10:58:17;;;;;;;51.85;25.10;;;;;;;12.76;47.39;101377.17;126260;1099;104137;-81
2021/03/27 11:01:00;;;;;;;48.80;24.90;;;;;;;12.91;47.45;101375.98;126227;1099;104287;-80
2021/03/27 11:03:53;;;;;;;51.50;26.77;;;;;;;12.86;46.45;101381.06;126260;1099;104142;-78
2021/03/27 11:06:49;;;;;;;53.47;27.63;;;;;;;12.74;46.48;101375.30;126145;1099;107679;-80
2021/03/27 11:09:44;;;;;;;54.93;26.67;;;;;;;12.71;46.82;101372.53;126272;1099;104328;-80
2021/03/27 11:12:42;;;;;;;48.03;25.27;;;;;;;12.77;47.26;101371.04;126151;1099;104259;-80
2021/03/27 11:15:28;;;;;;;50.20;25.33;;;;;;;12.92;47.11;101373.41;126182;1099;104268;-80
2021/03/27 11:18:24;;;;;;;50.83;25.83;;;;;;;13.06;46.73;101370.44;126302;1099;104337;-79
2021/03/27 11:21:18;;;;;;;48.33;24.90;;;;;;;13.17;46.45;101366.47;126213;1099;104192;-79
2021/03/27 11:24:15;;;;;;;48.67;24.30;;;;;;;13.29;46.95;101366.03;126270;1099;104201;-79
2021/03/27 11:27:08;;;;;;;52.87;26.43;;;;;;;13.36;46.33;101369.86;126126;1099;104162;-79
2021/03/27 11:29:43;;;;;;;51.03;26.30;;;;;;;13.36;46.20;101372.49;126015;1099;104253;-79
2021/03/27 11:32:24;;;;;;;48.17;25.13;;;;;;;13.26;46.00;101361.56;126109;1098;104130;-79
2021/03/27 11:35:00;;;;;;;49.43;26.07;;;;;;;13.20;46.02;101363.95;126140;1099;104168;-79
2021/03/27 11:37:41;;;;;;;54.27;25.70;;;;;;;13.17;45.75;101366.47;126110;1099;104240;-79
2021/03/27 11:40:25;;;;;;;47.47;22.73;;;;;;;13.22;45.67;101359.64;126208;1099;104165;-80
2021/03/27 11:43:05;;;;;;;47.77;24.53;;;;;;;13.25;45.64;101357.12;126247;1099;104232;-79
2021/03/27 11:45:42;;;;;;;42.97;22.57;;;;;;;13.28;45.36;101358.98;125952;1099;104560;-78
2021/03/27 11:48:19;;;;;;;46.97;24.37;;;;;;;13.27;45.29;101358.06;126258;1099;104216;-80
2021/03/27 11:50:54;;;;;;;45.73;23.33;;;;;;;13.28;45.36;101351.97;126216;1099;104260;-79
2021/03/27 11:53:36;;;;;;;45.00;22.47;;;;;;;13.33;44.71;101352.17;126245;1099;104297;-78
2021/03/27 11:56:13;;;;;;;43.57;23.33;;;;;;;13.36;45.34;101354.05;126208;1099;104153;-80
2021/03/27 12:01:50;;;;;;;42.67;22.67;;;;;;;13.39;44.67;101347.14;126255;1099;104203;-79
2021/03/27 12:04:48;;;;;;;46.97;23.70;;;;;;;13.41;45.14;101350.72;126153;1099;103057;-80
2021/03/27 12:07:24;;;;;;;47.20;25.10;;;;;;;13.47;44.83;101350.06;126177;1099;104166;-78
2021/03/27 12:10:00;;;;;;;42.97;22.63;;;;;;;13.46;44.60;101348.26;126143;1099;104185;-79
2021/03/27 12:12:40;;;;;;;41.90;21.77;;;;;;;13.46;44.91;101345.63;126120;1099;104267;-79
2021/03/27 12:15:31;;;;;;;41.73;21.20;;;;;;;13.49;44.43;101348.37;126270;1099;104162;-80
2021/03/27 12:18:10;;;;;;;43.27;21.77;;;;;;;13.49;44.44;101343.09;126100;1099;118519;-79